sensor_id;sensor_type;location;lat;lon;timestamp;pressure;altitude;pressure_sealevel;temperature;humidity
34925;BME280;21130;51.728;8.748;2023-03-21T00:01:28;100530.22;;;7.78;100.00
34925;BME280;21130;51.728;8.748;2023-03-21T00:03:55;100526.84;;;7.76;100.00
34925;BME280;21130;51.728;8.748;2023-03-21T00:06:21;100524.69;;;7.78;100.00
34925;BME280;21130;51.728;8.748;2023-03-21T00:08:49;100515.78;;;7.76;100.00
34925;BME280;21130;51.728;8.748;2023-03-21T00:11:16;100527.00;;;7.81;100.00
34925;BME280;21130;51.728;8.748;2023-03-21T00:13:42;100523.78;;;7.84;100.00
34925;BME280;21130;51.728;8.748;2023-03-21T00:16:10;100512.34;;;7.81;100.00
34925;BME280;21130;51.728;8.748;2023-03-21T00:18:40;100519.16;;;7.78;100.00
34925;BME280;21130;51.728;8.748;2023-03-21T00:21:09;100514.69;;;7.77;100.00
34925;BME280;21130;51.728;8.748;2023-03-21T00:23:36;100512.81;;;7.77;100.00
34925;BME280;21130;51.728;8.748;2023-03-21T00:26:04;100513.66;;;7.78;100.00
34925;BME280;21130;51.728;8.748;2023-03-21T00:28:34;100511.72;;;7.78;100.00
34925;BME280;21130;51.728;8.748;2023-03-21T00:31:00;100509.78;;;7.79;100.00
34925;BME280;21130;51.728;8.748;2023-03-21T00:33:27;100509.84;;;7.72;100.00
34925;BME280;21130;51.728;8.748;2023-03-21T00:35:54;100512.84;;;7.71;100.00
34925;BME280;21130;51.728;8.748;2023-03-21T00:38:22;100514.94;;;7.75;100.00
34925;BME280;21130;51.728;8.748;2023-03-21T00:40:49;100506.50;;;7.70;100.00
34925;BME280;21130;51.728;8.748;2023-03-21T00:43:17;100502.81;;;7.76;100.00
34925;BME280;21130;51.728;8.748;2023-03-21T00:45:48;100504.53;;;7.77;100.00
34925;BME280;21130;51.728;8.748;2023-03-21T00:48:16;100498.53;;;7.81;100.00
34925;BME280;21130;51.728;8.748;2023-03-21T00:50:43;100497.69;;;7.80;100.00
34925;BME280;21130;51.728;8.748;2023-03-21T00:53:11;100499.53;;;7.86;100.00
34925;BME280;21130;51.728;8.748;2023-03-21T00:55:38;100500.84;;;7.84;100.00
34925;BME280;21130;51.728;8.748;2023-03-21T00:58:05;100502.66;;;7.90;100.00
34925;BME280;21130;51.728;8.748;2023-03-21T01:00:33;100492.50;;;7.90;100.00
34925;BME280;21130;51.728;8.748;2023-03-21T01:03:01;100489.72;;;7.90;100.00
34925;BME280;21130;51.728;8.748;2023-03-21T01:05:31;100493.09;;;7.92;100.00
34925;BME280;21130;51.728;8.748;2023-03-21T01:08:16;100502.47;;;7.91;100.00
34925;BME280;21130;51.728;8.748;2023-03-21T01:10:45;100491.25;;;7.86;100.00
34925;BME280;21130;51.728;8.748;2023-03-21T01:13:15;100499.31;;;7.88;100.00
34925;BME280;21130;51.728;8.748;2023-03-21T01:15:44;100493.38;;;7.84;100.00
34925;BME280;21130;51.728;8.748;2023-03-21T01:18:12;100483.88;;;7.80;100.00
34925;BME280;21130;51.728;8.748;2023-03-21T01:20:39;100484.38;;;7.70;100.00
34925;BME280;21130;51.728;8.748;2023-03-21T01:23:06;100481.63;;;7.70;100.00
34925;BME280;21130;51.728;8.748;2023-03-21T01:25:33;100484.97;;;7.72;100.00
34925;BME280;21130;51.728;8.748;2023-03-21T01:27:59;100484.31;;;7.77;100.00
34925;BME280;21130;51.728;8.748;2023-03-21T01:30:26;100477.41;;;7.68;100.00
34925;BME280;21130;51.728;8.748;2023-03-21T01:32:53;100484.78;;;7.74;100.00
34925;BME280;21130;51.728;8.748;2023-03-21T01:35:20;100471.25;;;7.66;100.00
34925;BME280;21130;51.728;8.748;2023-03-21T01:37:46;100471.63;;;7.69;100.00
34925;BME280;21130;51.728;8.748;2023-03-21T01:40:15;100472.88;;;7.73;100.00
34925;BME280;21130;51.728;8.748;2023-03-21T01:42:42;100473.03;;;7.78;100.00
34925;BME280;21130;51.728;8.748;2023-03-21T01:48:12;100467.34;;;7.73;100.00
34925;BME280;21130;51.728;8.748;2023-03-21T01:50:39;100468.34;;;7.79;100.00
34925;BME280;21130;51.728;8.748;2023-03-21T01:53:07;100470.66;;;7.82;100.00
34925;BME280;21130;51.728;8.748;2023-03-21T01:55:34;100466.84;;;7.83;100.00
34925;BME280;21130;51.728;8.748;2023-03-21T01:58:03;100465.13;;;7.82;100.00
34925;BME280;21130;51.728;8.748;2023-03-21T02:00:31;100459.75;;;7.87;100.00
34925;BME280;21130;51.728;8.748;2023-03-21T02:02:59;100461.31;;;7.83;100.00
34925;BME280;21130;51.728;8.748;2023-03-21T02:05:32;100462.78;;;7.86;100.00
34925;BME280;21130;51.728;8.748;2023-03-21T02:08:02;100456.09;;;7.93;100.00
34925;BME280;21130;51.728;8.748;2023-03-21T02:10:30;100451.88;;;7.91;100.00
34925;BME280;21130;51.728;8.748;2023-03-21T02:12:59;100447.56;;;7.95;100.00
34925;BME280;21130;51.728;8.748;2023-03-21T02:15:33;100441.19;;;7.94;100.00
34925;BME280;21130;51.728;8.748;2023-03-21T02:18:03;100439.06;;;7.96;100.00
34925;BME280;21130;51.728;8.748;2023-03-21T02:20:47;100435.59;;;8.01;100.00
34925;BME280;21130;51.728;8.748;2023-03-21T02:26:38;100433.69;;;8.01;100.00
34925;BME280;21130;51.728;8.748;2023-03-21T02:29:18;100419.66;;;8.03;100.00
34925;BME280;21130;51.728;8.748;2023-03-21T02:31:59;100417.25;;;8.07;100.00
34925;BME280;21130;51.728;8.748;2023-03-21T02:34:47;100419.41;;;8.05;100.00
34925;BME280;21130;51.728;8.748;2023-03-21T02:37:21;100418.97;;;8.08;100.00
34925;BME280;21130;51.728;8.748;2023-03-21T02:40:02;100424.50;;;8.08;100.00
34925;BME280;21130;51.728;8.748;2023-03-21T02:42:39;100418.97;;;8.08;100.00
34925;BME280;21130;51.728;8.748;2023-03-21T02:45:14;100416.41;;;8.06;100.00
34925;BME280;21130;51.728;8.748;2023-03-21T02:47:45;100415.72;;;8.11;100.00
34925;BME280;21130;51.728;8.748;2023-03-21T02:50:16;100411.25;;;8.10;100.00
34925;BME280;21130;51.728;8.748;2023-03-21T02:52:47;100405.50;;;8.11;100.00
34925;BME280;21130;51.728;8.748;2023-03-21T02:55:17;100407.81;;;8.14;100.00
34925;BME280;21130;51.728;8.748;2023-03-21T02:57:47;100405.66;;;8.16;100.00
34925;BME280;21130;51.728;8.748;2023-03-21T03:00:17;100410.34;;;8.16;100.00
34925;BME280;21130;51.728;8.748;2023-03-21T03:02:45;100410.97;;;8.18;100.00
34925;BME280;21130;51.728;8.748;2023-03-21T03:05:15;100404.34;;;8.19;100.00
34925;BME280;21130;51.728;8.748;2023-03-21T03:07:52;100403.50;;;8.18;100.00
34925;BME280;21130;51.728;8.748;2023-03-21T03:10:30;100403.13;;;8.15;100.00
34925;BME280;21130;51.728;8.748;2023-03-21T03:13:08;100402.97;;;8.10;100.00
34925;BME280;21130;51.728;8.748;2023-03-21T03:15:44;100394.66;;;8.10;100.00
34925;BME280;21130;51.728;8.748;2023-03-21T03:18:19;100400.34;;;8.15;100.00
34925;BME280;21130;51.728;8.748;2023-03-21T03:20:59;100392.81;;;8.22;100.00
34925;BME280;21130;51.728;8.748;2023-03-21T03:23:35;100388.38;;;8.21;100.00
34925;BME280;21130;51.728;8.748;2023-03-21T03:26:08;100392.59;;;8.23;100.00
34925;BME280;21130;51.728;8.748;2023-03-21T03:28:38;100390.44;;;8.26;100.00
34925;BME280;21130;51.728;8.748;2023-03-21T03:31:07;100386.84;;;8.25;100.00
34925;BME280;21130;51.728;8.748;2023-03-21T03:33:39;100381.75;;;8.22;100.00
34925;BME280;21130;51.728;8.748;2023-03-21T03:36:09;100382.59;;;8.22;100.00
34925;BME280;21130;51.728;8.748;2023-03-21T03:38:40;100384.22;;;8.30;100.00
34925;BME280;21130;51.728;8.748;2023-03-21T03:41:09;100382.84;;;8.21;100.00
34925;BME280;21130;51.728;8.748;2023-03-21T03:43:44;100384.38;;;8.17;100.00
34925;BME280;21130;51.728;8.748;2023-03-21T03:46:17;100382.59;;;8.22;100.00
34925;BME280;21130;51.728;8.748;2023-03-21T03:48:48;100382.72;;;8.16;100.00
34925;BME280;21130;51.728;8.748;2023-03-21T03:51:19;100381.06;;;8.27;100.00
34925;BME280;21130;51.728;8.748;2023-03-21T03:53:53;100383.47;;;8.23;100.00
34925;BME280;21130;51.728;8.748;2023-03-21T03:56:22;100376.84;;;8.24;100.00
34925;BME280;21130;51.728;8.748;2023-03-21T03:58:50;100382.53;;;8.29;100.00
34925;BME280;21130;51.728;8.748;2023-03-21T04:01:16;100379.13;;;8.27;100.00
34925;BME280;21130;51.728;8.748;2023-03-21T04:03:46;100373.88;;;8.26;100.00
34925;BME280;21130;51.728;8.748;2023-03-21T04:06:13;100380.84;;;8.28;100.00
34925;BME280;21130;51.728;8.748;2023-03-21T04:08:40;100367.88;;;8.29;100.00
34925;BME280;21130;51.728;8.748;2023-03-21T04:11:09;100381.22;;;8.32;100.00
34925;BME280;21130;51.728;8.748;2023-03-21T04:13:35;100377.47;;;8.26;100.00
34925;BME280;21130;51.728;8.748;2023-03-21T04:16:02;100376.31;;;8.34;100.00
34925;BME280;21130;51.728;8.748;2023-03-21T04:18:28;100368.69;;;8.29;100.00
34925;BME280;21130;51.728;8.748;2023-03-21T04:20:56;100373.59;;;8.27;100.00
34925;BME280;21130;51.728;8.748;2023-03-21T04:23:23;100368.56;;;8.24;100.00
34925;BME280;21130;51.728;8.748;2023-03-21T04:25:49;100376.53;;;8.32;100.00
34925;BME280;21130;51.728;8.748;2023-03-21T04:28:17;100365.25;;;8.34;100.00
34925;BME280;21130;51.728;8.748;2023-03-21T04:30:47;100368.22;;;8.32;100.00
34925;BME280;21130;51.728;8.748;2023-03-21T04:33:14;100364.53;;;8.38;100.00
34925;BME280;21130;51.728;8.748;2023-03-21T04:35:40;100366.69;;;8.36;100.00
34925;BME280;21130;51.728;8.748;2023-03-21T04:38:07;100363.47;;;8.39;100.00
34925;BME280;21130;51.728;8.748;2023-03-21T04:40:33;100351.41;;;8.34;100.00
34925;BME280;21130;51.728;8.748;2023-03-21T04:42:59;100357.31;;;8.37;100.00
34925;BME280;21130;51.728;8.748;2023-03-21T04:45:27;100355.63;;;8.36;100.00
34925;BME280;21130;51.728;8.748;2023-03-21T04:47:54;100355.00;;;8.34;100.00
34925;BME280;21130;51.728;8.748;2023-03-21T04:50:21;100354.31;;;8.39;100.00
34925;BME280;21130;51.728;8.748;2023-03-21T04:52:47;100349.66;;;8.39;100.00
34925;BME280;21130;51.728;8.748;2023-03-21T04:55:14;100350.56;;;8.33;100.00
34925;BME280;21130;51.728;8.748;2023-03-21T04:57:40;100346.41;;;8.42;100.00
34925;BME280;21130;51.728;8.748;2023-03-21T05:00:08;100346.88;;;8.39;100.00
34925;BME280;21130;51.728;8.748;2023-03-21T05:02:37;100339.81;;;8.43;100.00
34925;BME280;21130;51.728;8.748;2023-03-21T05:05:04;100338.25;;;8.48;100.00
34925;BME280;21130;51.728;8.748;2023-03-21T05:07:31;100342.88;;;8.54;100.00
34925;BME280;21130;51.728;8.748;2023-03-21T05:09:58;100343.84;;;8.59;100.00
34925;BME280;21130;51.728;8.748;2023-03-21T05:12:24;100338.41;;;8.53;100.00
34925;BME280;21130;51.728;8.748;2023-03-21T05:14:51;100342.38;;;8.57;100.00
34925;BME280;21130;51.728;8.748;2023-03-21T05:17:17;100342.03;;;8.53;100.00
34925;BME280;21130;51.728;8.748;2023-03-21T05:19:49;100345.16;;;8.57;100.00
34925;BME280;21130;51.728;8.748;2023-03-21T05:22:17;100347.91;;;8.57;100.00
34925;BME280;21130;51.728;8.748;2023-03-21T05:24:45;100349.00;;;8.56;100.00
34925;BME280;21130;51.728;8.748;2023-03-21T05:27:14;100348.75;;;8.57;100.00
34925;BME280;21130;51.728;8.748;2023-03-21T05:29:59;100342.38;;;8.57;100.00
34925;BME280;21130;51.728;8.748;2023-03-21T05:32:26;100341.19;;;8.53;100.00
34925;BME280;21130;51.728;8.748;2023-03-21T05:34:54;100343.84;;;8.59;100.00
34925;BME280;21130;51.728;8.748;2023-03-21T05:37:20;100344.22;;;8.63;100.00
34925;BME280;21130;51.728;8.748;2023-03-21T05:39:47;100345.91;;;8.64;100.00
34925;BME280;21130;51.728;8.748;2023-03-21T05:42:13;100334.47;;;8.60;100.00
34925;BME280;21130;51.728;8.748;2023-03-21T05:44:40;100334.47;;;8.60;100.00
34925;BME280;21130;51.728;8.748;2023-03-21T05:47:06;100336.97;;;8.62;100.00
34925;BME280;21130;51.728;8.748;2023-03-21T05:49:33;100335.44;;;8.66;100.00
34925;BME280;21130;51.728;8.748;2023-03-21T05:52:01;100332.19;;;8.69;100.00
34925;BME280;21130;51.728;8.748;2023-03-21T05:54:27;100328.34;;;8.70;100.00
34925;BME280;21130;51.728;8.748;2023-03-21T05:57:03;100338.34;;;8.71;100.00
34925;BME280;21130;51.728;8.748;2023-03-21T05:59:29;100339.41;;;8.70;100.00
34925;BME280;21130;51.728;8.748;2023-03-21T06:01:56;100342.16;;;8.70;100.00
34925;BME280;21130;51.728;8.748;2023-03-21T06:04:22;100338.84;;;8.80;100.00
34925;BME280;21130;51.728;8.748;2023-03-21T06:06:49;100331.53;;;8.85;100.00
34925;BME280;21130;51.728;8.748;2023-03-21T06:09:17;100339.91;;;8.79;100.00
34925;BME280;21130;51.728;8.748;2023-03-21T06:11:47;100340.75;;;8.79;100.00
34925;BME280;21130;51.728;8.748;2023-03-21T06:14:14;100337.91;;;8.86;100.00
34925;BME280;21130;51.728;8.748;2023-03-21T06:16:41;100341.28;;;8.88;100.00
34925;BME280;21130;51.728;8.748;2023-03-21T06:19:07;100342.94;;;8.89;100.00
34925;BME280;21130;51.728;8.748;2023-03-21T06:21:34;100341.63;;;8.92;100.00
34925;BME280;21130;51.728;8.748;2023-03-21T06:24:00;100337.41;;;8.89;100.00
34925;BME280;21130;51.728;8.748;2023-03-21T06:26:29;100328.16;;;8.95;100.00
34925;BME280;21130;51.728;8.748;2023-03-21T06:28:55;100330.91;;;8.95;100.00
34925;BME280;21130;51.728;8.748;2023-03-21T06:31:22;100339.94;;;9.02;100.00
34925;BME280;21130;51.728;8.748;2023-03-21T06:33:49;100343.09;;;9.06;100.00
34925;BME280;21130;51.728;8.748;2023-03-21T06:36:17;100337.69;;;9.11;100.00
34925;BME280;21130;51.728;8.748;2023-03-21T06:38:44;100337.44;;;9.13;100.00
34925;BME280;21130;51.728;8.748;2023-03-21T06:41:11;100347.19;;;9.15;100.00
34925;BME280;21130;51.728;8.748;2023-03-21T06:43:39;100344.69;;;9.14;100.00
34925;BME280;21130;51.728;8.748;2023-03-21T06:46:08;100342.88;;;9.19;100.00
34925;BME280;21130;51.728;8.748;2023-03-21T06:48:36;100342.25;;;9.17;100.00
34925;BME280;21130;51.728;8.748;2023-03-21T06:51:14;100342.03;;;9.19;100.00
34925;BME280;21130;51.728;8.748;2023-03-21T06:53:41;100341.06;;;9.25;100.00
34925;BME280;21130;51.728;8.748;2023-03-21T06:56:09;100335.75;;;9.35;100.00
34925;BME280;21130;51.728;8.748;2023-03-21T06:58:36;100337.19;;;9.38;100.00
34925;BME280;21130;51.728;8.748;2023-03-21T07:01:05;100338.75;;;9.45;100.00
34925;BME280;21130;51.728;8.748;2023-03-21T07:03:32;100345.03;;;9.52;100.00
34925;BME280;21130;51.728;8.748;2023-03-21T07:06:03;100342.50;;;9.51;100.00
34925;BME280;21130;51.728;8.748;2023-03-21T07:08:31;100337.59;;;9.53;100.00
34925;BME280;21130;51.728;8.748;2023-03-21T07:10:57;100339.38;;;9.47;100.00
34925;BME280;21130;51.728;8.748;2023-03-21T07:13:24;100329.00;;;9.55;100.00
34925;BME280;21130;51.728;8.748;2023-03-21T07:15:51;100325.16;;;9.56;100.00
34925;BME280;21130;51.728;8.748;2023-03-21T07:18:19;100334.56;;;9.55;100.00
34925;BME280;21130;51.728;8.748;2023-03-21T07:20:46;100328.66;;;9.51;100.00
34925;BME280;21130;51.728;8.748;2023-03-21T07:23:15;100334.81;;;9.53;100.00
34925;BME280;21130;51.728;8.748;2023-03-21T07:25:41;100335.88;;;9.64;100.00
34925;BME280;21130;51.728;8.748;2023-03-21T07:34:18;100334.38;;;9.85;100.00
34925;BME280;21130;51.728;8.748;2023-03-21T07:36:45;100343.06;;;9.88;100.00
34925;BME280;21130;51.728;8.748;2023-03-21T07:39:11;100343.28;;;9.87;100.00
34925;BME280;21130;51.728;8.748;2023-03-21T07:41:37;100340.13;;;9.95;100.00
34925;BME280;21130;51.728;8.748;2023-03-21T07:44:04;100341.69;;;10.03;100.00
34925;BME280;21130;51.728;8.748;2023-03-21T07:46:30;100333.47;;;10.08;100.00
34925;BME280;21130;51.728;8.748;2023-03-21T07:48:57;100341.88;;;10.13;100.00
34925;BME280;21130;51.728;8.748;2023-03-21T07:51:25;100338.16;;;10.19;100.00
34925;BME280;21130;51.728;8.748;2023-03-21T07:53:51;100340.41;;;10.22;100.00
34925;BME280;21130;51.728;8.748;2023-03-21T07:56:18;100336.72;;;10.28;100.00
34925;BME280;21130;51.728;8.748;2023-03-21T07:58:44;100342.09;;;10.35;100.00
34925;BME280;21130;51.728;8.748;2023-03-21T08:01:10;100344.59;;;10.48;100.00
34925;BME280;21130;51.728;8.748;2023-03-21T08:03:37;100344.91;;;10.52;100.00
34925;BME280;21130;51.728;8.748;2023-03-21T08:06:04;100348.81;;;10.51;100.00
34925;BME280;21130;51.728;8.748;2023-03-21T08:08:31;100342.97;;;10.52;100.00
34925;BME280;21130;51.728;8.748;2023-03-21T08:10:58;100353.66;;;10.60;100.00
34925;BME280;21130;51.728;8.748;2023-03-21T08:13:25;100351.50;;;10.63;100.00
34925;BME280;21130;51.728;8.748;2023-03-21T08:15:51;100351.94;;;10.71;100.00
34925;BME280;21130;51.728;8.748;2023-03-21T08:18:18;100338.53;;;10.68;100.00
34925;BME280;21130;51.728;8.748;2023-03-21T08:20:44;100349.25;;;10.76;100.00
34925;BME280;21130;51.728;8.748;2023-03-21T08:23:11;100340.41;;;10.63;100.00
34925;BME280;21130;51.728;8.748;2023-03-21T08:25:39;100339.97;;;10.54;100.00
34925;BME280;21130;51.728;8.748;2023-03-21T08:28:06;100350.81;;;10.55;100.00
34925;BME280;21130;51.728;8.748;2023-03-21T08:30:32;100344.78;;;10.58;100.00
34925;BME280;21130;51.728;8.748;2023-03-21T08:32:59;100350.81;;;10.55;100.00
34925;BME280;21130;51.728;8.748;2023-03-21T08:35:26;100349.63;;;10.51;100.00
34925;BME280;21130;51.728;8.748;2023-03-21T08:37:53;100349.63;;;10.51;100.00
34925;BME280;21130;51.728;8.748;2023-03-21T08:40:19;100346.94;;;10.56;100.00
34925;BME280;21130;51.728;8.748;2023-03-21T08:42:47;100343.25;;;10.51;100.00
34925;BME280;21130;51.728;8.748;2023-03-21T08:45:15;100344.41;;;10.55;100.00
34925;BME280;21130;51.728;8.748;2023-03-21T08:47:42;100342.56;;;10.60;100.00
34925;BME280;21130;51.728;8.748;2023-03-21T08:50:11;100343.25;;;10.68;100.00
34925;BME280;21130;51.728;8.748;2023-03-21T08:52:38;100347.78;;;10.57;100.00
34925;BME280;21130;51.728;8.748;2023-03-21T08:55:06;100346.94;;;10.56;100.00
34925;BME280;21130;51.728;8.748;2023-03-21T08:57:33;100345.63;;;10.59;100.00
34925;BME280;21130;51.728;8.748;2023-03-21T09:00:02;100346.25;;;10.49;100.00
34925;BME280;21130;51.728;8.748;2023-03-21T09:02:36;100351.63;;;10.39;100.00
34925;BME280;21130;51.728;8.748;2023-03-21T09:05:03;100351.00;;;10.37;100.00
34925;BME280;21130;51.728;8.748;2023-03-21T09:07:30;100350.91;;;10.32;100.00
34925;BME280;21130;51.728;8.748;2023-03-21T09:09:58;100356.13;;;10.28;100.00
34925;BME280;21130;51.728;8.748;2023-03-21T09:12:24;100345.13;;;10.33;100.00
34925;BME280;21130;51.728;8.748;2023-03-21T09:14:51;100343.09;;;10.29;100.00
34925;BME280;21130;51.728;8.748;2023-03-21T09:17:19;100343.56;;;10.26;100.00
34925;BME280;21130;51.728;8.748;2023-03-21T09:19:45;100344.88;;;10.23;100.00
34925;BME280;21130;51.728;8.748;2023-03-21T09:22:13;100347.41;;;10.25;100.00
34925;BME280;21130;51.728;8.748;2023-03-21T09:24:41;100353.44;;;10.22;100.00
34925;BME280;21130;51.728;8.748;2023-03-21T09:27:09;100352.72;;;10.26;100.00
34925;BME280;21130;51.728;8.748;2023-03-21T09:29:35;100348.00;;;10.27;100.00
34925;BME280;21130;51.728;8.748;2023-03-21T09:32:02;100345.03;;;10.28;100.00
34925;BME280;21130;51.728;8.748;2023-03-21T09:34:32;100358.72;;;10.35;100.00
34925;BME280;21130;51.728;8.748;2023-03-21T09:37:01;100352.72;;;10.26;100.00
34925;BME280;21130;51.728;8.748;2023-03-21T09:39:27;100357.66;;;10.36;100.00
34925;BME280;21130;51.728;8.748;2023-03-21T09:42:02;100367.06;;;10.35;100.00
34925;BME280;21130;51.728;8.748;2023-03-21T09:44:52;100360.56;;;10.17;100.00
34925;BME280;21130;51.728;8.748;2023-03-21T09:47:27;100358.06;;;10.16;100.00
34925;BME280;21130;51.728;8.748;2023-03-21T09:50:00;100367.00;;;10.06;100.00
34925;BME280;21130;51.728;8.748;2023-03-21T09:52:32;100366.69;;;9.91;100.00
34925;BME280;21130;51.728;8.748;2023-03-21T09:55:04;100369.19;;;9.92;100.00
34925;BME280;21130;51.728;8.748;2023-03-21T09:57:44;100355.00;;;9.89;100.00
34925;BME280;21130;51.728;8.748;2023-03-21T10:00:17;100362.94;;;9.85;100.00
34925;BME280;21130;51.728;8.748;2023-03-21T10:02:48;100362.59;;;9.82;100.00
34925;BME280;21130;51.728;8.748;2023-03-21T10:05:18;100357.06;;;9.82;100.00
34925;BME280;21130;51.728;8.748;2023-03-21T10:07:51;100356.81;;;9.83;100.00
34925;BME280;21130;51.728;8.748;2023-03-21T10:10:21;100363.22;;;9.72;100.00
34925;BME280;21130;51.728;8.748;2023-03-21T10:12:49;100369.25;;;9.69;100.00
34925;BME280;21130;51.728;8.748;2023-03-21T10:15:19;100352.94;;;9.72;100.00
34925;BME280;21130;51.728;8.748;2023-03-21T10:17:50;100359.38;;;9.61;100.00
34925;BME280;21130;51.728;8.748;2023-03-21T10:20:22;100360.56;;;9.65;100.00
34925;BME280;21130;51.728;8.748;2023-03-21T10:22:51;100360.09;;;9.68;100.00
34925;BME280;21130;51.728;8.748;2023-03-21T10:25:21;100354.78;;;9.79;100.00
34925;BME280;21130;51.728;8.748;2023-03-21T10:27:50;100347.78;;;9.76;100.00
34925;BME280;21130;51.728;8.748;2023-03-21T10:30:27;100344.63;;;9.84;100.00
34925;BME280;21130;51.728;8.748;2023-03-21T10:32:56;100347.16;;;9.86;100.00
34925;BME280;21130;51.728;8.748;2023-03-21T10:35:27;100342.59;;;9.80;100.00
34925;BME280;21130;51.728;8.748;2023-03-21T10:37:55;100340.31;;;9.77;100.00
34925;BME280;21130;51.728;8.748;2023-03-21T10:40:22;100345.63;;;9.78;100.00
34925;BME280;21130;51.728;8.748;2023-03-21T10:42:48;100339.69;;;9.86;100.00
34925;BME280;21130;51.728;8.748;2023-03-21T10:45:16;100340.19;;;9.83;100.00
34925;BME280;21130;51.728;8.748;2023-03-21T10:47:46;100335.47;;;9.84;100.00
34925;BME280;21130;51.728;8.748;2023-03-21T10:50:15;100333.31;;;9.86;100.00
34925;BME280;21130;51.728;8.748;2023-03-21T10:52:46;100340.53;;;9.75;100.00
34925;BME280;21130;51.728;8.748;2023-03-21T10:55:18;100333.81;;;9.71;100.00
34925;BME280;21130;51.728;8.748;2023-03-21T10:57:46;100335.97;;;9.81;100.00
34925;BME280;21130;51.728;8.748;2023-03-21T11:00:19;100330.91;;;9.78;100.00
34925;BME280;21130;51.728;8.748;2023-03-21T11:02:48;100333.31;;;9.74;100.00
34925;BME280;21130;51.728;8.748;2023-03-21T11:05:20;100336.44;;;9.89;100.00
34925;BME280;21130;51.728;8.748;2023-03-21T11:07:56;100322.56;;;9.89;100.00
34925;BME280;21130;51.728;8.748;2023-03-21T11:10:27;100326.28;;;9.95;100.00
34925;BME280;21130;51.728;8.748;2023-03-21T11:12:56;100333.03;;;9.87;100.00
34925;BME280;21130;51.728;8.748;2023-03-21T11:15:28;100331.59;;;9.97;100.00
34925;BME280;21130;51.728;8.748;2023-03-21T11:17:55;100329.41;;;9.99;100.00
34925;BME280;21130;51.728;8.748;2023-03-21T11:20:22;100317.63;;;9.91;100.00
34925;BME280;21130;51.728;8.748;2023-03-21T11:22:53;100323.16;;;9.91;100.00
34925;BME280;21130;51.728;8.748;2023-03-21T11:25:29;100324.00;;;9.92;100.00
34925;BME280;21130;51.728;8.748;2023-03-21T11:27:56;100328.94;;;9.90;100.00
34925;BME280;21130;51.728;8.748;2023-03-21T11:30:25;100324.50;;;9.89;100.00
34925;BME280;21130;51.728;8.748;2023-03-21T11:32:54;100322.16;;;9.98;100.00
34925;BME280;21130;51.728;8.748;2023-03-21T11:35:22;100322.06;;;9.92;100.00
34925;BME280;21130;51.728;8.748;2023-03-21T11:37:51;100318.34;;;9.99;100.00
34925;BME280;21130;51.728;8.748;2023-03-21T11:40:21;100313.97;;;10.03;100.00
34925;BME280;21130;51.728;8.748;2023-03-21T11:42:51;100305.91;;;10.01;100.00
34925;BME280;21130;51.728;8.748;2023-03-21T11:45:19;100313.63;;;9.99;100.00
34925;BME280;21130;51.728;8.748;2023-03-21T11:47:49;100303.72;;;10.03;100.00
34925;BME280;21130;51.728;8.748;2023-03-21T11:50:19;100304.06;;;10.07;100.00
34925;BME280;21130;51.728;8.748;2023-03-21T11:52:53;100300.34;;;10.01;100.00
34925;BME280;21130;51.728;8.748;2023-03-21T11:55:35;100292.63;;;10.03;100.00
34925;BME280;21130;51.728;8.748;2023-03-21T11:58:22;100291.47;;;9.87;100.00
34925;BME280;21130;51.728;8.748;2023-03-21T12:00:54;100285.69;;;9.89;100.00
34925;BME280;21130;51.728;8.748;2023-03-21T12:03:42;100288.69;;;9.87;100.00
34925;BME280;21130;51.728;8.748;2023-03-21T12:06:16;100289.44;;;9.83;100.00
34925;BME280;21130;51.728;8.748;2023-03-21T12:08:52;100280.88;;;9.84;100.00
34925;BME280;21130;51.728;8.748;2023-03-21T12:11:27;100281.59;;;9.80;100.00
34925;BME280;21130;51.728;8.748;2023-03-21T12:14:04;100267.53;;;9.81;100.00
34925;BME280;21130;51.728;8.748;2023-03-21T12:16:44;100263.44;;;9.72;100.00
34925;BME280;21130;51.728;8.748;2023-03-21T12:19:24;100266.84;;;9.62;100.00
34925;BME280;21130;51.728;8.748;2023-03-21T12:22:04;100263.00;;;9.63;100.00
34925;BME280;21130;51.728;8.748;2023-03-21T12:24:32;100262.41;;;9.61;100.00
34925;BME280;21130;51.728;8.748;2023-03-21T12:27:10;100254.19;;;9.66;100.00
34925;BME280;21130;51.728;8.748;2023-03-21T12:30:03;100253.69;;;9.69;100.00
34925;BME280;21130;51.728;8.748;2023-03-21T12:32:44;100246.91;;;9.77;100.00
34925;BME280;21130;51.728;8.748;2023-03-21T12:35:26;100238.97;;;9.81;100.00
34925;BME280;21130;51.728;8.748;2023-03-21T12:38:05;100237.16;;;9.74;100.00
34925;BME280;21130;51.728;8.748;2023-03-21T12:40:45;100244.63;;;9.74;100.00
34925;BME280;21130;51.728;8.748;2023-03-21T12:43:27;100235.38;;;9.68;100.00
34925;BME280;21130;51.728;8.748;2023-03-21T12:45:59;100240.31;;;9.78;100.00
34925;BME280;21130;51.728;8.748;2023-03-21T12:48:34;100233.53;;;9.86;100.00
34925;BME280;21130;51.728;8.748;2023-03-21T12:51:04;100223.91;;;9.77;100.00
34925;BME280;21130;51.728;8.748;2023-03-21T12:53:40;100227.28;;;9.79;100.00
34925;BME280;21130;51.728;8.748;2023-03-21T12:56:14;100228.34;;;9.78;100.00
34925;BME280;21130;51.728;8.748;2023-03-21T12:58:46;100224.00;;;9.82;100.00
34925;BME280;21130;51.728;8.748;2023-03-21T13:01:16;100216.78;;;9.81;100.00
34925;BME280;21130;51.728;8.748;2023-03-21T13:03:50;100213.75;;;9.82;100.00
34925;BME280;21130;51.728;8.748;2023-03-21T13:06:23;100207.38;;;9.82;100.00
34925;BME280;21130;51.728;8.748;2023-03-21T13:08:55;100210.06;;;9.77;100.00
34925;BME280;21130;51.728;8.748;2023-03-21T13:11:24;100202.16;;;9.85;100.00
34925;BME280;21130;51.728;8.748;2023-03-21T13:13:56;100203.38;;;9.89;100.00